Airport ICAO


00:49 UTC

-1°C

Scattered clouds


An affordable passengers' Moving Map for your aircraft. Made for the iPad and the iPhone
More information here

LFLL Saint Exupery


Lyon FRANCE   VFR


METAR LFLL 230030Z 34005KT 8000 SCT047 SCT120 M01/M05 Q1010 NOSIG 0h19min

TAF LFLL 222300Z 2300/2406 34010KT 8000 SCT015 BKN040 BECMG 2312/2315 CAVOK 1h49min





NOTAMS

OPEN